createdAt,value
2023-10-01T00:00:25.713Z,1019.31
2023-10-01T00:01:25.801Z,1019.27
2023-10-01T00:02:25.756Z,1019.27
2023-10-01T00:03:27.265Z,1019.23
2023-10-01T00:04:25.942Z,1019.22
2023-10-01T00:05:25.822Z,1019.22
2023-10-01T00:06:25.817Z,1019.22
2023-10-01T00:07:25.875Z,1019.21
2023-10-01T00:08:25.857Z,1019.23
2023-10-01T00:09:25.879Z,1019.22
2023-10-01T00:10:25.908Z,1019.24
2023-10-01T00:11:25.903Z,1019.25
2023-10-01T00:12:25.920Z,1019.22
2023-10-01T00:13:25.982Z,1019.21
2023-10-01T00:14:28.294Z,1019.21
2023-10-01T00:15:25.987Z,1019.21
2023-10-01T00:16:26.077Z,1019.16
2023-10-01T00:17:26.063Z,1019.17
2023-10-01T00:18:26.052Z,1019.17
2023-10-01T00:19:26.589Z,1019.17
2023-10-01T00:20:26.064Z,1019.14
2023-10-01T00:21:26.298Z,1019.13
2023-10-01T00:22:26.132Z,1019.11
2023-10-01T00:23:26.109Z,1019.09
2023-10-01T00:24:26.128Z,1019.10
2023-10-01T00:25:26.257Z,1019.12
2023-10-01T00:26:26.159Z,1019.14
2023-10-01T00:27:26.182Z,1019.19
2023-10-01T00:28:26.237Z,1019.13
2023-10-01T00:29:26.223Z,1019.13
2023-10-01T00:30:26.231Z,1019.17
2023-10-01T00:31:26.280Z,1019.15
2023-10-01T00:32:26.329Z,1019.15
2023-10-01T00:33:26.289Z,1019.14
2023-10-01T00:34:26.331Z,1019.10
2023-10-01T00:35:26.320Z,1019.07
2023-10-01T00:36:26.341Z,1019.07
2023-10-01T00:37:26.396Z,1019.09
2023-10-01T00:38:26.380Z,1019.06
2023-10-01T00:39:26.391Z,1019.07
2023-10-01T00:40:26.456Z,1019.04
2023-10-01T00:41:26.426Z,1019.07
2023-10-01T00:42:26.446Z,1019.03
2023-10-01T00:43:26.474Z,1019.02
2023-10-01T00:44:26.491Z,1019.01
2023-10-01T00:45:26.529Z,1018.95
2023-10-01T00:46:26.560Z,1018.99
2023-10-01T00:47:26.555Z,1018.99
2023-10-01T00:48:26.545Z,1018.99
2023-10-01T00:49:26.584Z,1019.03
2023-10-01T00:50:26.598Z,1019.01
2023-10-01T00:51:26.598Z,1018.98
2023-10-01T00:52:26.652Z,1018.98
2023-10-01T00:53:26.629Z,1018.94
2023-10-01T00:54:26.647Z,1018.98
2023-10-01T00:55:26.709Z,1019.00
2023-10-01T00:56:26.687Z,1018.98
2023-10-01T00:57:26.708Z,1019.04
2023-10-01T00:58:26.740Z,1019.05
2023-10-01T00:59:26.735Z,1019.00
2023-10-01T01:00:26.752Z,1019.00
2023-10-01T01:01:26.822Z,1019.01
2023-10-01T01:02:26.875Z,1018.99
2023-10-01T01:03:26.933Z,1018.95
2023-10-01T01:04:26.835Z,1018.93
2023-10-01T01:05:26.831Z,1018.97
2023-10-01T01:06:26.853Z,1018.95
2023-10-01T01:07:26.872Z,1018.90
2023-10-01T01:08:26.879Z,1018.88
2023-10-01T01:09:26.896Z,1018.91
2023-10-01T01:10:26.975Z,1018.88
2023-10-01T01:11:26.932Z,1018.91
2023-10-01T01:12:26.951Z,1018.90
2023-10-01T01:13:27.044Z,1018.84
2023-10-01T01:14:26.982Z,1018.83
2023-10-01T01:15:26.995Z,1018.82
2023-10-01T01:16:27.150Z,1018.79
2023-10-01T01:17:27.090Z,1018.79
2023-10-01T01:18:27.047Z,1018.76
2023-10-01T01:19:27.096Z,1018.75
2023-10-01T01:20:27.079Z,1018.75
2023-10-01T01:21:27.099Z,1018.74
2023-10-01T01:22:27.153Z,1018.73
2023-10-01T01:23:27.138Z,1018.71
2023-10-01T01:24:27.154Z,1018.71
2023-10-01T01:25:27.402Z,1018.69
2023-10-01T01:26:27.179Z,1018.73
2023-10-01T01:27:27.193Z,1018.69
2023-10-01T01:28:27.241Z,1018.74
2023-10-01T01:29:27.243Z,1018.70
2023-10-01T01:30:27.259Z,1018.73
2023-10-01T01:31:27.331Z,1018.69
2023-10-01T01:32:27.319Z,1018.71
2023-10-01T01:33:27.348Z,1018.72
2023-10-01T01:34:27.343Z,1018.74
2023-10-01T01:35:27.334Z,1018.74
2023-10-01T01:36:27.352Z,1018.76
2023-10-01T01:37:27.386Z,1018.75
2023-10-01T01:38:27.384Z,1018.74
2023-10-01T01:39:27.868Z,1018.70
2023-10-01T01:40:27.480Z,1018.73
2023-10-01T01:41:27.442Z,1018.70
2023-10-01T01:42:27.451Z,1018.71
2023-10-01T01:43:27.501Z,1018.75
2023-10-01T01:44:27.505Z,1018.75
2023-10-01T01:45:27.525Z,1018.74
2023-10-01T01:46:27.580Z,1018.72
2023-10-01T01:47:27.565Z,1018.71
2023-10-01T01:48:27.632Z,1018.66
2023-10-01T01:49:27.607Z,1018.67
2023-10-01T01:50:27.644Z,1018.65
2023-10-01T01:51:27.609Z,1018.66
2023-10-01T01:52:27.673Z,1018.67
2023-10-01T01:53:27.638Z,1018.63
2023-10-01T01:54:27.660Z,1018.62
2023-10-01T01:55:27.896Z,1018.63
2023-10-01T01:56:27.694Z,1018.57
2023-10-01T01:57:27.707Z,1018.55
2023-10-01T01:58:27.817Z,1018.55
2023-10-01T01:59:27.740Z,1018.55
2023-10-01T02:00:27.758Z,1018.52
2023-10-01T02:01:27.895Z,1018.54
2023-10-01T02:02:27.888Z,1018.53
2023-10-01T02:03:27.883Z,1018.53
2023-10-01T02:04:27.855Z,1018.61
2023-10-01T02:05:27.910Z,1018.59
2023-10-01T02:06:28.208Z,1018.59
2023-10-01T02:07:27.918Z,1018.53
2023-10-01T02:08:27.910Z,1018.55
2023-10-01T02:09:27.910Z,1018.55
2023-10-01T02:10:27.972Z,1018.57
2023-10-01T02:11:27.942Z,1018.57
2023-10-01T02:12:27.962Z,1018.57
2023-10-01T02:13:28.014Z,1018.52
2023-10-01T02:14:27.999Z,1018.56
2023-10-01T02:15:28.021Z,1018.59
2023-10-01T02:16:28.347Z,1018.60
2023-10-01T02:17:28.069Z,1018.57
2023-10-01T02:18:28.064Z,1018.55
2023-10-01T02:19:28.373Z,1018.58
2023-10-01T02:20:28.110Z,1018.59
2023-10-01T02:21:28.114Z,1018.58
2023-10-01T02:22:28.180Z,1018.58
2023-10-01T02:23:28.150Z,1018.52
2023-10-01T02:24:28.169Z,1018.44
2023-10-01T02:25:28.249Z,1018.43
2023-10-01T02:26:28.204Z,1018.42
2023-10-01T02:27:28.349Z,1018.40
2023-10-01T02:28:28.272Z,1018.39
2023-10-01T02:29:28.251Z,1018.38
2023-10-01T02:30:28.289Z,1018.41
2023-10-01T02:31:28.376Z,1018.43
2023-10-01T02:32:28.320Z,1018.46
2023-10-01T02:33:28.324Z,1018.38
2023-10-01T02:34:28.372Z,1018.41
2023-10-01T02:35:28.353Z,1018.38
2023-10-01T02:36:28.372Z,1018.41
2023-10-01T02:37:28.434Z,1018.40
2023-10-01T02:38:28.406Z,1018.38
2023-10-01T02:39:28.431Z,1018.39
2023-10-01T02:40:28.479Z,1018.38
2023-10-01T02:41:28.463Z,1018.32
2023-10-01T02:42:28.475Z,1018.29
2023-10-01T02:43:28.555Z,1018.33
2023-10-01T02:44:28.507Z,1018.29
2023-10-01T02:45:28.527Z,1018.27
2023-10-01T02:46:28.695Z,1018.28
2023-10-01T02:47:28.590Z,1018.28
2023-10-01T02:48:28.581Z,1018.23
2023-10-01T02:49:28.627Z,1018.22
2023-10-01T02:50:28.623Z,1018.25
2023-10-01T02:51:28.634Z,1018.25
2023-10-01T02:52:28.720Z,1018.24
2023-10-01T02:53:28.668Z,1018.26
2023-10-01T02:54:28.686Z,1018.26
2023-10-01T02:55:28.748Z,1018.27
2023-10-01T02:56:28.720Z,1018.28
2023-10-01T02:57:28.741Z,1018.32
2023-10-01T02:58:29.048Z,1018.33
2023-10-01T02:59:28.769Z,1018.34
2023-10-01T03:00:28.809Z,1018.31
2023-10-01T03:01:28.912Z,1018.30
2023-10-01T03:02:28.883Z,1018.26
2023-10-01T03:03:28.848Z,1018.25
2023-10-01T03:04:29.010Z,1018.28
2023-10-01T03:05:28.876Z,1018.29
2023-10-01T03:06:28.893Z,1018.28
2023-10-01T03:07:28.934Z,1018.20
2023-10-01T03:08:28.927Z,1018.21
2023-10-01T03:09:28.944Z,1018.23
2023-10-01T03:10:29.015Z,1018.21
2023-10-01T03:11:28.997Z,1018.19
2023-10-01T03:12:29.005Z,1018.25
2023-10-01T03:13:29.072Z,1018.28
2023-10-01T03:14:29.033Z,1018.26
2023-10-01T03:15:29.113Z,1018.27
2023-10-01T03:16:29.121Z,1018.25
2023-10-01T03:17:29.108Z,1018.26
2023-10-01T03:18:29.109Z,1018.28
2023-10-01T03:19:29.162Z,1018.31
2023-10-01T03:20:29.131Z,1018.29
2023-10-01T03:21:29.148Z,1018.30
2023-10-01T03:22:29.194Z,1018.27
2023-10-01T03:23:29.183Z,1018.29
2023-10-01T03:24:29.198Z,1018.32
2023-10-01T03:25:29.268Z,1018.30
2023-10-01T03:26:29.231Z,1018.29
2023-10-01T03:27:29.247Z,1018.34
2023-10-01T03:28:29.296Z,1018.34
2023-10-01T03:29:29.276Z,1018.30
2023-10-01T03:30:29.305Z,1018.28
2023-10-01T03:31:29.388Z,1018.28
2023-10-01T03:32:29.378Z,1018.29
2023-10-01T03:33:29.349Z,1018.32
2023-10-01T03:34:29.401Z,1018.31
2023-10-01T03:35:29.377Z,1018.30
2023-10-01T03:36:29.399Z,1018.31
2023-10-01T03:37:29.490Z,1018.34
2023-10-01T03:38:29.429Z,1018.37
2023-10-01T03:39:29.450Z,1018.41
2023-10-01T03:40:29.530Z,1018.40
2023-10-01T03:41:29.483Z,1018.40
2023-10-01T03:42:29.501Z,1018.43
2023-10-01T03:43:29.574Z,1018.41
2023-10-01T03:44:29.530Z,1018.43
2023-10-01T03:45:29.556Z,1018.41
2023-10-01T03:46:29.671Z,1018.40
2023-10-01T03:47:29.609Z,1018.37
2023-10-01T03:48:29.598Z,1018.35
2023-10-01T03:49:29.655Z,1018.30
2023-10-01T03:50:29.636Z,1018.31
2023-10-01T03:51:29.677Z,1018.30
2023-10-01T03:52:29.704Z,1018.32
2023-10-01T03:53:29.687Z,1018.32
2023-10-01T03:54:29.703Z,1018.24
2023-10-01T03:55:29.899Z,1018.20
2023-10-01T03:56:29.738Z,1018.26
2023-10-01T03:57:29.757Z,1018.25
2023-10-01T03:58:29.815Z,1018.29
2023-10-01T03:59:29.788Z,1018.29
2023-10-01T04:00:29.809Z,1018.31
2023-10-01T04:01:29.905Z,1018.28
2023-10-01T04:02:30.090Z,1018.21
2023-10-01T04:03:29.855Z,1018.15
2023-10-01T04:04:29.953Z,1018.14
2023-10-01T04:05:29.896Z,1018.20
2023-10-01T04:06:29.909Z,1018.26
2023-10-01T04:07:29.950Z,1018.21
2023-10-01T04:08:29.946Z,1018.24
2023-10-01T04:09:29.961Z,1018.26
2023-10-01T04:10:30.399Z,1018.26
2023-10-01T04:11:29.995Z,1018.20
2023-10-01T04:12:30.085Z,1018.16
2023-10-01T04:13:30.045Z,1018.11
2023-10-01T04:14:30.046Z,1018.13
2023-10-01T04:15:30.063Z,1018.07
2023-10-01T04:16:30.158Z,1018.14
2023-10-01T04:17:30.163Z,1018.10
2023-10-01T04:18:30.444Z,1018.16
2023-10-01T04:19:30.277Z,1018.15
2023-10-01T04:20:30.150Z,1018.18
2023-10-01T04:21:30.174Z,1018.24
2023-10-01T04:22:30.241Z,1018.22
2023-10-01T04:23:30.199Z,1018.21
2023-10-01T04:24:30.216Z,1018.20
2023-10-01T04:25:30.278Z,1018.20
2023-10-01T04:26:30.249Z,1018.22
2023-10-01T04:27:30.277Z,1018.22
2023-10-01T04:28:30.293Z,1018.18
2023-10-01T04:29:32.694Z,1018.21
2023-10-01T04:30:30.335Z,1018.23
2023-10-01T04:31:30.347Z,1018.30
2023-10-01T04:32:30.386Z,1018.26
2023-10-01T04:33:30.371Z,1018.27
2023-10-01T04:34:30.434Z,1018.25
2023-10-01T04:35:30.400Z,1018.27
2023-10-01T04:36:30.418Z,1018.30
2023-10-01T04:37:30.466Z,1018.31
2023-10-01T04:38:30.507Z,1018.28
2023-10-01T04:39:30.472Z,1018.34
2023-10-01T04:40:30.564Z,1018.32
2023-10-01T04:41:30.501Z,1018.34
2023-10-01T04:42:30.521Z,1018.34
2023-10-01T04:43:30.592Z,1018.35
2023-10-01T04:44:30.560Z,1018.33
2023-10-01T04:45:30.573Z,1018.31
2023-10-01T04:46:30.778Z,1018.28
2023-10-01T04:47:30.705Z,1018.29
2023-10-01T04:48:30.618Z,1018.28
2023-10-01T04:49:36.906Z,1018.26
2023-10-01T04:50:30.654Z,1018.27
2023-10-01T04:51:30.669Z,1018.25
2023-10-01T04:52:30.712Z,1018.26
2023-10-01T04:53:30.704Z,1018.27
2023-10-01T04:54:30.722Z,1018.26
2023-10-01T04:55:30.791Z,1018.27
2023-10-01T04:56:30.753Z,1018.29
2023-10-01T04:57:30.775Z,1018.30
2023-10-01T04:58:30.816Z,1018.31
2023-10-01T04:59:30.807Z,1018.30
2023-10-01T05:00:30.819Z,1018.36
2023-10-01T05:01:30.875Z,1018.33
2023-10-01T05:02:31.096Z,1018.31
2023-10-01T05:03:30.900Z,1018.30
2023-10-01T05:04:30.949Z,1018.30
2023-10-01T05:05:30.922Z,1018.34
2023-10-01T05:06:30.933Z,1018.33
2023-10-01T05:07:30.963Z,1018.30
2023-10-01T05:08:30.961Z,1018.31
2023-10-01T05:09:31.000Z,1018.31
2023-10-01T05:10:31.022Z,1018.29
2023-10-01T05:11:31.158Z,1018.27
2023-10-01T05:12:31.031Z,1018.30
2023-10-01T05:13:31.829Z,1018.30
2023-10-01T05:14:31.074Z,1018.32
2023-10-01T05:15:31.080Z,1018.35
2023-10-01T05:16:31.181Z,1018.32
2023-10-01T05:17:31.151Z,1018.35
2023-10-01T05:18:31.130Z,1018.34
2023-10-01T05:19:31.266Z,1018.35
2023-10-01T05:20:31.168Z,1018.37
2023-10-01T05:21:31.182Z,1018.39
2023-10-01T05:22:31.270Z,1018.41
2023-10-01T05:23:31.214Z,1018.42
2023-10-01T05:24:31.241Z,1018.37
2023-10-01T05:25:31.344Z,1018.43
2023-10-01T05:26:31.268Z,1018.34
2023-10-01T05:27:31.285Z,1018.37
2023-10-01T05:28:31.335Z,1018.41
2023-10-01T05:29:31.320Z,1018.41
2023-10-01T05:30:31.351Z,1018.37
2023-10-01T05:31:31.432Z,1018.33
2023-10-01T05:32:31.400Z,1018.32
2023-10-01T05:33:31.390Z,1018.34
2023-10-01T05:34:31.442Z,1018.34
2023-10-01T05:35:31.426Z,1018.36
2023-10-01T05:36:31.440Z,1018.41
2023-10-01T05:37:31.483Z,1018.43
2023-10-01T05:38:31.475Z,1018.42
2023-10-01T05:39:31.745Z,1018.44
2023-10-01T05:40:31.573Z,1018.43
2023-10-01T05:41:31.526Z,1018.42
2023-10-01T05:42:31.539Z,1018.46
2023-10-01T05:43:31.629Z,1018.44
2023-10-01T05:44:31.580Z,1018.47
2023-10-01T05:45:31.597Z,1018.44
2023-10-01T05:46:31.974Z,1018.50
2023-10-01T05:47:31.663Z,1018.49
2023-10-01T05:48:31.651Z,1018.50
2023-10-01T05:49:31.711Z,1018.49
2023-10-01T05:50:31.680Z,1018.42
2023-10-01T05:51:31.847Z,1018.42
2023-10-01T05:52:31.729Z,1018.44
2023-10-01T05:53:31.755Z,1018.45
2023-10-01T05:54:31.750Z,1018.42
2023-10-01T05:55:31.826Z,1018.45
2023-10-01T05:56:31.790Z,1018.44
2023-10-01T05:57:31.805Z,1018.45
2023-10-01T05:58:31.845Z,1018.37
2023-10-01T05:59:31.840Z,1018.35
2023-10-01T06:00:31.857Z,1018.29
2023-10-01T06:01:31.955Z,1018.29
2023-10-01T06:02:31.920Z,1018.28
2023-10-01T06:03:32.266Z,1018.22
2023-10-01T06:04:31.961Z,1018.22
2023-10-01T06:05:31.946Z,1018.24
2023-10-01T06:06:31.968Z,1018.21
2023-10-01T06:07:32.080Z,1018.24
2023-10-01T06:08:32.007Z,1018.26
2023-10-01T06:09:32.020Z,1018.23
2023-10-01T06:10:34.110Z,1018.21
2023-10-01T06:11:32.051Z,1018.18
2023-10-01T06:12:32.067Z,1018.20
2023-10-01T06:13:32.120Z,1018.22
2023-10-01T06:14:32.106Z,1018.26
2023-10-01T06:15:32.123Z,1018.28
2023-10-01T06:16:32.215Z,1018.28
2023-10-01T06:17:32.175Z,1018.26
2023-10-01T06:18:32.182Z,1018.28
2023-10-01T06:19:32.234Z,1018.29
2023-10-01T06:20:32.212Z,1018.31
2023-10-01T06:21:32.232Z,1018.33
2023-10-01T06:22:32.344Z,1018.33
2023-10-01T06:23:32.267Z,1018.35
2023-10-01T06:24:32.288Z,1018.29
2023-10-01T06:25:32.372Z,1018.33
2023-10-01T06:26:32.318Z,1018.32
2023-10-01T06:27:32.344Z,1018.31
2023-10-01T06:28:32.432Z,1018.30
2023-10-01T06:29:32.373Z,1018.32
2023-10-01T06:30:32.398Z,1018.32
2023-10-01T06:31:32.482Z,1018.33
2023-10-01T06:32:32.504Z,1018.29
2023-10-01T06:33:32.449Z,1018.27
2023-10-01T06:34:32.496Z,1018.35
2023-10-01T06:35:32.484Z,1018.31
2023-10-01T06:36:32.503Z,1018.33
2023-10-01T06:37:32.582Z,1018.36
2023-10-01T06:38:32.540Z,1018.34
2023-10-01T06:39:32.816Z,1018.37
2023-10-01T06:40:32.607Z,1018.38
2023-10-01T06:41:32.593Z,1018.28
2023-10-01T06:42:32.612Z,1018.33
2023-10-01T06:43:32.687Z,1018.27
2023-10-01T06:44:32.649Z,1018.24
2023-10-01T06:45:32.731Z,1018.20
2023-10-01T06:46:32.753Z,1018.26
2023-10-01T06:47:32.740Z,1018.28
2023-10-01T06:48:32.849Z,1018.28
2023-10-01T06:49:32.771Z,1018.28
2023-10-01T06:50:32.761Z,1018.30
2023-10-01T06:51:32.785Z,1018.29
2023-10-01T06:52:32.835Z,1018.28
2023-10-01T06:53:32.819Z,1018.25
2023-10-01T06:54:32.838Z,1018.21
2023-10-01T06:55:32.892Z,1018.21
2023-10-01T06:56:35.566Z,1018.22
2023-10-01T06:57:32.901Z,1018.26
2023-10-01T06:58:32.958Z,1018.29
2023-10-01T06:59:32.932Z,1018.31
2023-10-01T07:00:32.949Z,1018.32
2023-10-01T07:01:33.068Z,1018.33
2023-10-01T07:02:32.996Z,1018.29
2023-10-01T07:03:33.097Z,1018.34
2023-10-01T07:04:33.109Z,1018.33
2023-10-01T07:05:33.044Z,1018.31
2023-10-01T07:06:33.064Z,1018.31
2023-10-01T07:07:33.112Z,1018.35
2023-10-01T07:08:33.103Z,1018.36
2023-10-01T07:09:33.121Z,1018.39
2023-10-01T07:10:33.171Z,1018.37
2023-10-01T07:11:33.161Z,1018.39
2023-10-01T07:12:33.176Z,1018.38
2023-10-01T07:13:33.245Z,1018.36
2023-10-01T07:14:33.216Z,1018.43
2023-10-01T07:15:33.238Z,1018.44
2023-10-01T07:16:33.339Z,1018.41
2023-10-01T07:17:33.293Z,1018.49
2023-10-01T07:18:33.295Z,1018.46
2023-10-01T07:19:33.355Z,1018.45
2023-10-01T07:20:33.333Z,1018.47
2023-10-01T07:21:33.355Z,1018.43
2023-10-01T07:22:33.447Z,1018.45
2023-10-01T07:23:33.393Z,1018.45
2023-10-01T07:24:33.417Z,1018.44
2023-10-01T07:25:33.516Z,1018.48
2023-10-01T07:26:33.470Z,1018.52
2023-10-01T07:27:33.469Z,1018.54
2023-10-01T07:28:33.571Z,1018.50
2023-10-01T07:29:33.508Z,1018.49
2023-10-01T07:30:33.533Z,1018.51
2023-10-01T07:31:33.601Z,1018.48
2023-10-01T07:32:33.622Z,1018.48
2023-10-01T07:33:33.594Z,1018.49
2023-10-01T07:34:33.654Z,1018.48
2023-10-01T07:35:33.623Z,1018.51
2023-10-01T07:36:33.644Z,1018.53
2023-10-01T07:37:33.693Z,1018.54
2023-10-01T07:38:33.775Z,1018.56
2023-10-01T07:39:33.710Z,1018.53
2023-10-01T07:40:33.835Z,1018.57
2023-10-01T07:41:33.739Z,1018.61
2023-10-01T07:42:33.766Z,1018.61
2023-10-01T07:43:33.830Z,1018.61
2023-10-01T07:44:33.800Z,1018.61
2023-10-01T07:45:33.817Z,1018.64
2023-10-01T07:46:33.940Z,1018.66
2023-10-01T07:47:34.056Z,1018.70
2023-10-01T07:48:33.880Z,1018.71
2023-10-01T07:49:33.925Z,1018.64
2023-10-01T07:50:33.917Z,1018.66
2023-10-01T07:51:33.937Z,1018.61
2023-10-01T07:52:34.002Z,1018.63
2023-10-01T07:53:33.990Z,1018.66
2023-10-01T07:54:34.001Z,1018.69
2023-10-01T07:55:34.082Z,1018.69
2023-10-01T07:56:34.053Z,1018.71
2023-10-01T07:57:34.058Z,1018.70
2023-10-01T07:58:34.094Z,1018.74
2023-10-01T07:59:34.101Z,1018.72
2023-10-01T08:00:34.123Z,1018.69
2023-10-01T08:01:34.237Z,1018.66
2023-10-01T08:02:34.219Z,1018.67
2023-10-01T08:03:34.475Z,1018.63
2023-10-01T08:04:34.386Z,1018.60
2023-10-01T08:05:34.220Z,1018.59
2023-10-01T08:06:34.238Z,1018.54
2023-10-01T08:07:34.311Z,1018.56
2023-10-01T08:08:34.277Z,1018.58
2023-10-01T08:09:34.301Z,1018.58
2023-10-01T08:10:34.349Z,1018.59
2023-10-01T08:11:34.346Z,1018.54
2023-10-01T08:12:34.372Z,1018.58
2023-10-01T08:13:34.412Z,1018.59
2023-10-01T08:14:34.596Z,1018.62
2023-10-01T08:15:34.432Z,1018.56
2023-10-01T08:16:34.543Z,1018.56
2023-10-01T08:17:34.520Z,1018.52
2023-10-01T08:18:34.492Z,1018.53
2023-10-01T08:19:34.539Z,1018.55
2023-10-01T08:20:34.543Z,1018.52
2023-10-01T08:21:36.596Z,1018.54
2023-10-01T08:22:34.632Z,1018.52
2023-10-01T08:23:34.760Z,1018.54
2023-10-01T08:24:34.617Z,1018.52
2023-10-01T08:25:34.685Z,1018.53
2023-10-01T08:26:34.656Z,1018.51
2023-10-01T08:27:34.674Z,1018.51
2023-10-01T08:28:34.727Z,1018.55
2023-10-01T08:29:34.721Z,1018.53
2023-10-01T08:30:34.835Z,1018.53
2023-10-01T08:31:34.802Z,1018.47
2023-10-01T08:32:34.808Z,1018.46
2023-10-01T08:33:34.808Z,1018.46
2023-10-01T08:34:34.895Z,1018.53
2023-10-01T08:35:34.864Z,1018.52
2023-10-01T08:36:34.862Z,1018.62
2023-10-01T08:37:34.911Z,1018.68
2023-10-01T08:38:34.904Z,1018.66
2023-10-01T08:39:34.948Z,1018.65
2023-10-01T08:40:35.008Z,1018.61
2023-10-01T08:41:34.979Z,1018.69
2023-10-01T08:42:34.988Z,1018.68
2023-10-01T08:43:35.129Z,1018.71
2023-10-01T08:44:35.070Z,1018.70
2023-10-01T08:45:35.052Z,1018.69
2023-10-01T08:46:35.134Z,1018.69
2023-10-01T08:47:35.117Z,1018.66
2023-10-01T08:48:35.122Z,1018.67
2023-10-01T08:49:35.163Z,1018.73
2023-10-01T08:50:35.163Z,1018.74
2023-10-01T08:51:35.189Z,1018.75
2023-10-01T08:52:35.300Z,1018.79
2023-10-01T08:53:35.226Z,1018.77
2023-10-01T08:54:35.248Z,1018.76
2023-10-01T08:55:37.283Z,1018.80
2023-10-01T08:56:35.290Z,1018.78
2023-10-01T08:57:35.309Z,1018.78
2023-10-01T08:58:35.386Z,1018.82
2023-10-01T08:59:35.353Z,1018.83
2023-10-01T09:00:35.431Z,1018.78
2023-10-01T09:01:35.477Z,1018.80
2023-10-01T09:02:35.436Z,1018.82
2023-10-01T09:03:35.508Z,1018.74
2023-10-01T09:04:35.465Z,1018.78
2023-10-01T09:05:35.493Z,1018.75
2023-10-01T09:06:35.505Z,1018.72
2023-10-01T09:07:35.568Z,1018.71
2023-10-01T09:08:35.563Z,1018.72
2023-10-01T09:09:35.573Z,1018.68
2023-10-01T09:10:35.677Z,1018.63
2023-10-01T09:11:35.615Z,1018.63
2023-10-01T09:12:35.653Z,1018.68
2023-10-01T09:13:35.693Z,1018.70
2023-10-01T09:14:35.682Z,1018.70
2023-10-01T09:15:35.707Z,1018.70
2023-10-01T09:16:35.809Z,1018.68
2023-10-01T09:17:35.790Z,1018.64
2023-10-01T09:18:35.773Z,1018.67
2023-10-01T09:19:35.847Z,1018.64
2023-10-01T09:20:35.819Z,1018.61
2023-10-01T09:21:35.837Z,1018.62
2023-10-01T09:22:35.915Z,1018.66
2023-10-01T09:23:35.885Z,1018.66
2023-10-01T09:24:35.963Z,1018.75
2023-10-01T09:25:36.102Z,1018.73
2023-10-01T09:26:35.951Z,1018.75
2023-10-01T09:27:35.975Z,1018.75
2023-10-01T09:28:36.014Z,1018.78
2023-10-01T09:29:36.019Z,1018.72
2023-10-01T09:30:36.041Z,1018.68
2023-10-01T09:31:36.135Z,1018.66
2023-10-01T09:32:36.213Z,1018.60
2023-10-01T09:33:36.113Z,1018.58
2023-10-01T09:34:36.317Z,1018.62
2023-10-01T09:35:36.157Z,1018.59
2023-10-01T09:36:36.182Z,1018.57
2023-10-01T09:37:36.277Z,1018.56
2023-10-01T09:38:36.225Z,1018.56
2023-10-01T09:39:36.248Z,1018.51
2023-10-01T09:40:36.330Z,1018.46
2023-10-01T09:41:36.297Z,1018.41
2023-10-01T09:42:36.321Z,1018.40
2023-10-01T09:43:36.358Z,1018.38
2023-10-01T09:44:36.363Z,1018.35
2023-10-01T09:45:36.386Z,1018.38
2023-10-01T09:46:36.549Z,1018.40
2023-10-01T09:47:36.485Z,1018.38
2023-10-01T09:48:36.464Z,1018.42
2023-10-01T09:49:36.541Z,1018.47
2023-10-01T09:50:36.501Z,1018.47
2023-10-01T09:51:36.526Z,1018.51
2023-10-01T09:52:36.588Z,1018.49
2023-10-01T09:53:36.570Z,1018.45
2023-10-01T09:54:36.598Z,1018.44
2023-10-01T09:55:36.645Z,1018.43
2023-10-01T09:56:36.642Z,1018.37
2023-10-01T09:57:36.667Z,1018.31
2023-10-01T09:58:36.711Z,1018.38
2023-10-01T09:59:36.708Z,1018.37
2023-10-01T10:00:36.761Z,1018.44
2023-10-01T10:01:36.955Z,1018.39
2023-10-01T10:02:36.894Z,1018.33
2023-10-01T10:03:36.811Z,1018.31
2023-10-01T10:04:36.908Z,1018.30
2023-10-01T10:05:36.892Z,1018.27
2023-10-01T10:06:36.874Z,1018.30
2023-10-01T10:07:36.918Z,1018.34
2023-10-01T10:08:36.941Z,1018.28
2023-10-01T10:09:36.948Z,1018.25
2023-10-01T10:10:37.039Z,1018.31
2023-10-01T10:11:37.001Z,1018.29
2023-10-01T10:12:37.020Z,1018.30
2023-10-01T10:13:37.110Z,1018.30
2023-10-01T10:14:37.069Z,1018.32
2023-10-01T10:15:37.090Z,1018.32
2023-10-01T10:16:37.186Z,1018.38
2023-10-01T10:17:37.149Z,1018.37
2023-10-01T10:18:37.159Z,1018.40
2023-10-01T10:19:37.222Z,1018.42
2023-10-01T10:20:42.357Z,1018.46
2023-10-01T10:21:37.230Z,1018.45
2023-10-01T10:22:37.285Z,1018.49
2023-10-01T10:23:37.285Z,1018.46
2023-10-01T10:24:37.314Z,1018.47
2023-10-01T10:25:37.352Z,1018.48
2023-10-01T10:26:37.349Z,1018.53
2023-10-01T10:27:37.370Z,1018.53
2023-10-01T10:28:37.417Z,1018.53
2023-10-01T10:29:37.418Z,1018.51
2023-10-01T10:30:37.449Z,1018.50
2023-10-01T10:31:37.550Z,1018.49
2023-10-01T10:32:37.588Z,1018.50
2023-10-01T10:33:37.516Z,1018.48
2023-10-01T10:34:37.713Z,1018.44
2023-10-01T10:35:37.575Z,1018.52
2023-10-01T10:36:37.589Z,1018.51
2023-10-01T10:37:37.749Z,1018.46
2023-10-01T10:38:37.634Z,1018.41
2023-10-01T10:39:37.656Z,1018.45
2023-10-01T10:40:37.702Z,1018.43
2023-10-01T10:41:37.701Z,1018.43
2023-10-01T10:42:37.729Z,1018.40
2023-10-01T10:43:37.779Z,1018.37
2023-10-01T10:44:37.776Z,1018.34
2023-10-01T10:45:37.815Z,1018.34
2023-10-01T10:46:37.871Z,1018.36
2023-10-01T10:47:37.883Z,1018.32
2023-10-01T10:48:37.868Z,1018.33
2023-10-01T10:49:37.930Z,1018.29
2023-10-01T10:50:37.916Z,1018.25
2023-10-01T10:51:37.941Z,1018.26
2023-10-01T10:52:38.054Z,1018.22
2023-10-01T10:53:37.986Z,1018.28
2023-10-01T10:54:38.016Z,1018.29
2023-10-01T10:55:38.128Z,1018.30
2023-10-01T10:56:38.053Z,1018.31
2023-10-01T10:57:38.079Z,1018.30
2023-10-01T10:58:38.128Z,1018.38
2023-10-01T10:59:38.130Z,1018.34
2023-10-01T11:00:38.146Z,1018.33
2023-10-01T11:01:38.256Z,1018.27
2023-10-01T11:02:38.278Z,1018.31
2023-10-01T11:03:38.216Z,1018.36
2023-10-01T11:04:38.278Z,1018.37
2023-10-01T11:05:38.301Z,1018.35
2023-10-01T11:06:38.282Z,1018.38
2023-10-01T11:07:38.383Z,1018.42
2023-10-01T11:08:38.337Z,1018.37
2023-10-01T11:09:38.352Z,1018.39
2023-10-01T11:10:38.413Z,1018.41
2023-10-01T11:11:42.455Z,1018.37
2023-10-01T11:12:38.423Z,1018.40
2023-10-01T11:13:38.520Z,1018.36
2023-10-01T11:14:38.559Z,1018.34
2023-10-01T11:15:38.591Z,1018.36
2023-10-01T11:16:38.760Z,1018.39
2023-10-01T11:17:38.545Z,1018.37
2023-10-01T11:18:38.554Z,1018.39
2023-10-01T11:19:38.625Z,1018.44
2023-10-01T11:20:38.605Z,1018.39
2023-10-01T11:21:38.628Z,1018.32
2023-10-01T11:22:38.673Z,1018.29
2023-10-01T11:23:38.678Z,1018.27
2023-10-01T11:24:38.736Z,1018.29
2023-10-01T11:25:38.744Z,1018.27
2023-10-01T11:26:38.744Z,1018.22
2023-10-01T11:27:38.786Z,1018.20
2023-10-01T11:28:38.815Z,1018.25
2023-10-01T11:29:38.812Z,1018.22
2023-10-01T11:30:38.836Z,1018.17
2023-10-01T11:31:38.937Z,1018.13
2023-10-01T11:32:39.081Z,1018.13
2023-10-01T11:33:38.921Z,1018.15
2023-10-01T11:34:38.951Z,1018.10
2023-10-01T11:35:39.013Z,1018.17
2023-10-01T11:36:38.973Z,1018.13
2023-10-01T11:37:39.036Z,1018.10
2023-10-01T11:38:39.016Z,1018.11
2023-10-01T11:39:39.046Z,1018.11
2023-10-01T11:40:39.135Z,1018.08
2023-10-01T11:41:39.082Z,1018.05
2023-10-01T11:42:39.108Z,1018.05
2023-10-01T11:43:39.237Z,1018.10
2023-10-01T11:44:39.155Z,1018.09
2023-10-01T11:45:39.185Z,1018.08
2023-10-01T11:46:39.206Z,1018.08
2023-10-01T11:47:39.233Z,1018.09
2023-10-01T11:48:39.250Z,1018.13
2023-10-01T11:49:39.333Z,1018.13
2023-10-01T11:50:39.292Z,1018.15
2023-10-01T11:51:39.337Z,1018.13
2023-10-01T11:52:39.384Z,1018.14
2023-10-01T11:53:39.363Z,1018.12
2023-10-01T11:54:39.385Z,1018.13
2023-10-01T11:55:39.577Z,1018.08
2023-10-01T11:56:39.430Z,1018.16
2023-10-01T11:57:39.449Z,1018.15
2023-10-01T11:58:39.515Z,1018.13
2023-10-01T11:59:39.494Z,1018.09
2023-10-01T12:00:39.518Z,1018.12
2023-10-01T12:01:39.614Z,1018.17
2023-10-01T12:02:39.591Z,1018.11
2023-10-01T12:03:39.665Z,1018.12
2023-10-01T12:04:39.637Z,1018.06
2023-10-01T12:05:39.844Z,1018.08